Time;durP1;ratioP1;P1;durP2;ratioP2;P2;SDS_P1;SDS_P2;PMS_P1;PMS_P2;Temp;Humidity;BMP_temperature;BMP_pressure;BME280_temperature;BME280_humidity;BME280_pressure;Samples;Min_cycle;Max_cycle;Signal;HPM_P1;HPM_P2
2020/12/10 00:01:34;;;;;;;41.28;20.15;;;;;;;-0.38;81.33;100574.81;5060821;28;20489;-70
2020/12/10 00:04:00;;;;;;;37.70;18.65;;;;;;;-0.40;81.48;100573.94;5070407;28;20577;-72
2020/12/10 00:06:26;;;;;;;42.88;20.60;;;;;;;-0.46;82.00;100577.22;5069273;28;20540;-71
2020/12/10 00:08:52;;;;;;;37.00;17.50;;;;;;;-0.42;81.50;100571.31;5069147;28;20419;-70
2020/12/10 00:11:18;;;;;;;38.35;18.25;;;;;;;-0.43;81.70;100577.25;5053745;28;20764;-70
2020/12/10 00:13:44;;;;;;;37.47;17.98;;;;;;;-0.41;82.03;100567.94;5055827;28;20075;-70
2020/12/10 00:16:11;;;;;;;41.75;19.60;;;;;;;-0.43;81.48;100577.25;5051811;28;20101;-72
2020/12/10 00:18:37;;;;;;;34.47;18.20;;;;;;;-0.42;82.05;100568.78;5065848;28;20556;-73
2020/12/10 00:21:04;;;;;;;38.50;18.08;;;;;;;-0.40;82.18;100559.47;5071150;28;20052;-69
2020/12/10 00:23:30;;;;;;;39.63;18.75;;;;;;;-0.43;82.37;100561.09;5067821;28;20048;-70
2020/12/10 00:25:56;;;;;;;35.45;18.30;;;;;;;-0.42;82.14;100558.56;5051641;28;20110;-69
2020/12/10 00:28:22;;;;;;;38.97;18.55;;;;;;;-0.49;82.50;100559.25;5068694;28;20065;-71
2020/12/10 00:30:48;;;;;;;34.28;18.42;;;;;;;-0.56;83.04;100562.50;5058899;28;20049;-70
2020/12/10 00:33:14;;;;;;;35.22;17.88;;;;;;;-0.55;82.82;100552.31;5065253;28;20048;-70
2020/12/10 00:35:40;;;;;;;35.85;18.48;;;;;;;-0.55;82.75;100559.13;5068792;28;20049;-70
2020/12/10 00:38:07;;;;;;;36.85;18.05;;;;;;;-0.61;82.64;100557.28;5068204;28;20045;-70
2020/12/10 00:40:33;;;;;;;37.28;18.27;;;;;;;-0.64;82.85;100546.97;5055059;28;20533;-69
2020/12/10 00:42:59;;;;;;;39.08;19.88;;;;;;;-0.69;83.17;100544.31;5059626;28;20639;-69
2020/12/10 00:45:25;;;;;;;44.20;21.65;;;;;;;-0.68;83.18;100546.06;5054448;28;20068;-70
2020/12/10 00:47:51;;;;;;;47.90;22.33;;;;;;;-0.74;83.21;100542.47;5066425;28;20131;-69
2020/12/10 00:50:17;;;;;;;49.30;22.60;;;;;;;-0.74;82.95;100533.13;5061825;28;20041;-69
2020/12/10 00:52:43;;;;;;;46.85;23.35;;;;;;;-0.68;82.99;100538.38;5068019;28;20052;-69
2020/12/10 00:55:10;;;;;;;45.10;22.45;;;;;;;-0.78;83.05;100533.88;5068725;28;20078;-69
2020/12/10 00:57:36;;;;;;;45.30;22.88;;;;;;;-0.85;83.58;100532.03;5062793;28;20040;-69
2020/12/10 01:00:02;;;;;;;46.10;22.52;;;;;;;-0.90;84.05;100529.38;5065236;28;20048;-69
2020/12/10 01:02:28;;;;;;;44.00;21.33;;;;;;;-0.91;83.74;100534.41;5051101;28;20103;-69
2020/12/10 01:04:54;;;;;;;44.10;22.08;;;;;;;-0.94;84.00;100528.41;5050857;28;20045;-69
2020/12/10 01:07:20;;;;;;;45.75;21.63;;;;;;;-0.95;84.53;100513.91;5068205;28;20078;-70
2020/12/10 01:09:46;;;;;;;41.08;21.13;;;;;;;-0.84;83.88;100523.50;5062126;28;20057;-70
2020/12/10 01:12:12;;;;;;;42.70;20.40;;;;;;;-0.80;84.05;100520.22;5053855;28;20045;-70
2020/12/10 01:14:38;;;;;;;45.42;21.85;;;;;;;-0.80;83.57;100505.75;5064650;28;20954;-69
2020/12/10 01:17:04;;;;;;;39.53;21.33;;;;;;;-0.85;83.75;100512.44;5066178;28;20549;-70
2020/12/10 01:19:30;;;;;;;42.55;22.30;;;;;;;-0.87;83.70;100515.81;5065998;28;20055;-69
2020/12/10 01:21:56;;;;;;;43.55;21.77;;;;;;;-0.91;83.69;100513.97;5065464;28;20106;-71
2020/12/10 01:24:22;;;;;;;45.90;21.98;;;;;;;-0.92;83.90;100522.47;5063734;28;20135;-73
2020/12/10 01:26:48;;;;;;;40.90;19.80;;;;;;;-0.90;83.56;100510.59;5064359;28;20083;-74
2020/12/10 01:29:15;;;;;;;37.35;20.75;;;;;;;-0.86;83.75;100512.41;5066611;28;20127;-71
2020/12/10 01:31:41;;;;;;;39.72;21.02;;;;;;;-0.83;83.60;100504.81;5051495;28;20045;-71
2020/12/10 01:34:07;;;;;;;37.95;19.33;;;;;;;-0.83;83.33;100503.13;5071024;28;20475;-72
2020/12/10 01:36:33;;;;;;;39.78;20.40;;;;;;;-0.81;83.84;100500.59;5069594;28;20521;-70
2020/12/10 01:38:59;;;;;;;40.13;20.63;;;;;;;-0.77;83.68;100501.53;5069407;28;20123;-70
2020/12/10 01:41:29;;;;;;;39.53;21.20;;;;;;;-0.74;83.77;100506.72;5060468;28;20071;-70
2020/12/10 01:44:00;;;;;;;40.60;19.98;;;;;;;-0.72;83.30;100502.53;5061077;28;20132;-71
2020/12/10 01:46:27;;;;;;;38.85;20.15;;;;;;;-0.70;83.42;100503.44;5058694;28;20049;-70
2020/12/10 01:48:53;;;;;;;36.15;18.85;;;;;;;-0.74;83.34;100507.56;5070561;28;20055;-70
2020/12/10 01:51:19;;;;;;;38.95;19.00;;;;;;;-0.69;83.25;100508.56;5052570;28;20068;-69
2020/12/10 01:53:45;;;;;;;33.28;17.48;;;;;;;-0.68;83.37;100504.31;5069379;28;20479;-70
2020/12/10 01:56:11;;;;;;;34.80;17.92;;;;;;;-0.65;83.51;100501.84;5071666;28;20540;-70
2020/12/10 01:58:37;;;;;;;37.45;19.27;;;;;;;-0.65;83.16;100500.13;5074518;28;20074;-70
2020/12/10 02:01:03;;;;;;;34.80;18.55;;;;;;;-0.51;83.30;100494.47;5057716;28;20049;-71
2020/12/10 02:03:30;;;;;;;33.83;17.48;;;;;;;-0.48;82.69;100494.56;5072290;28;20119;-70
2020/12/10 02:05:56;;;;;;;35.22;18.60;;;;;;;-0.53;83.23;100497.00;5073393;28;20109;-70
2020/12/10 02:08:22;;;;;;;37.13;19.08;;;;;;;-0.55;82.99;100497.81;5066056;28;20056;-70
2020/12/10 02:10:48;;;;;;;37.03;18.63;;;;;;;-0.58;83.13;100490.91;5054328;28;20052;-71
2020/12/10 02:13:14;;;;;;;37.97;17.80;;;;;;;-0.64;83.64;100491.63;5070405;28;20049;-70
2020/12/10 02:15:47;;;;;;;34.22;18.48;;;;;;;-0.61;83.21;100489.97;5072330;28;20048;-71
2020/12/10 02:18:13;;;;;;;35.45;18.48;;;;;;;-0.61;83.12;100487.44;5071848;28;20052;-70
2020/12/10 02:20:40;;;;;;;31.55;17.08;;;;;;;-0.60;83.21;100478.94;5074501;28;20048;-70
2020/12/10 02:23:07;;;;;;;36.20;18.17;;;;;;;-0.57;83.48;100476.47;5064265;28;20064;-69
2020/12/10 02:25:34;;;;;;;36.78;16.95;;;;;;;-0.58;83.02;100474.75;5054542;28;20045;-71
2020/12/10 02:28:01;;;;;;;34.55;17.92;;;;;;;-0.61;82.81;100472.09;5066109;28;20508;-71
2020/12/10 02:30:28;;;;;;;34.40;16.92;;;;;;;-0.61;82.99;100464.44;5063818;28;20494;-69
2020/12/10 02:32:58;;;;;;;36.75;19.35;;;;;;;-0.61;82.79;100467.88;5064596;28;20102;-71
2020/12/10 02:35:26;;;;;;;31.17;17.83;;;;;;;-0.64;83.06;100462.69;5054527;28;20056;-70
2020/12/10 02:37:56;;;;;;;36.78;19.15;;;;;;;-0.64;83.27;100458.44;5070059;28;20106;-71
2020/12/10 02:40:24;;;;;;;36.72;18.20;;;;;;;-0.65;82.72;100446.47;5073274;28;20059;-71
2020/12/10 02:42:51;;;;;;;41.03;19.27;;;;;;;-0.65;83.15;100443.94;5069832;28;20049;-70
2020/12/10 02:45:17;;;;;;;37.83;19.48;;;;;;;-0.66;83.22;100439.69;5071444;28;20056;-70
2020/12/10 02:47:43;;;;;;;32.35;18.20;;;;;;;-0.67;83.60;100439.63;5075688;28;20044;-70
2020/12/10 02:50:09;;;;;;;39.72;19.60;;;;;;;-0.69;83.42;100442.16;5072410;28;20056;-70
2020/12/10 02:52:35;;;;;;;38.10;19.10;;;;;;;-0.72;83.73;100441.22;5064743;28;20102;-68
2020/12/10 02:55:01;;;;;;;34.83;18.10;;;;;;;-0.73;83.86;100436.94;5067307;22;20433;-66
2020/12/10 02:57:28;;;;;;;40.15;19.73;;;;;;;-0.72;83.60;100439.53;5028016;28;20064;-66
2020/12/10 02:59:54;;;;;;;34.95;18.33;;;;;;;-0.71;83.20;100433.59;5034662;28;20053;-66
2020/12/10 03:02:20;;;;;;;36.65;18.50;;;;;;;-0.73;83.39;100431.84;5044756;28;20663;-65
2020/12/10 03:04:46;;;;;;;35.20;19.75;;;;;;;-0.72;83.44;100431.00;5028936;28;20152;-65
2020/12/10 03:07:12;;;;;;;33.95;18.42;;;;;;;-0.71;83.06;100440.41;5031275;28;20553;-66
2020/12/10 03:09:37;;;;;;;34.13;18.40;;;;;;;-0.71;82.57;100425.94;5030903;28;20462;-66
2020/12/10 03:12:04;;;;;;;38.45;18.15;;;;;;;-0.71;82.90;100431.03;5023278;28;20049;-65
2020/12/10 03:14:30;;;;;;;35.85;17.85;;;;;;;-0.71;82.91;100430.19;5032096;28;20058;-66
2020/12/10 03:16:56;;;;;;;38.60;18.63;;;;;;;-0.76;83.02;100427.53;5017578;28;20053;-66
2020/12/10 03:19:22;;;;;;;33.10;17.20;;;;;;;-0.74;83.24;100433.50;5031537;28;20080;-66
2020/12/10 03:21:48;;;;;;;34.90;18.45;;;;;;;-0.74;83.36;100430.13;5031706;28;20099;-66
2020/12/10 03:24:15;;;;;;;38.78;17.92;;;;;;;-0.80;83.32;100438.50;5031623;28;20045;-66
2020/12/10 03:26:40;;;;;;;32.83;17.27;;;;;;;-0.81;83.51;100432.53;5030389;28;20049;-66
2020/12/10 03:29:09;;;;;;;31.88;16.52;;;;;;;-0.79;83.60;100427.47;5030165;28;20053;-66
2020/12/10 03:31:36;;;;;;;38.60;19.08;;;;;;;-0.80;83.46;100426.56;5031283;28;20053;-66
2020/12/10 03:34:02;;;;;;;35.60;18.38;;;;;;;-0.80;83.01;100423.19;5032312;28;20049;-66
2020/12/10 03:36:30;;;;;;;36.05;18.65;;;;;;;-0.79;83.41;100422.34;5031237;28;20046;-66
2020/12/10 03:38:56;;;;;;;36.92;18.50;;;;;;;-0.76;83.32;100419.00;5031064;28;20045;-66
2020/12/10 03:41:22;;;;;;;36.00;17.88;;;;;;;-0.81;83.09;100407.00;5018050;28;20053;-67
2020/12/10 03:43:48;;;;;;;43.30;18.95;;;;;;;-0.81;83.39;100409.56;5030851;28;20049;-66
2020/12/10 03:46:14;;;;;;;37.50;18.55;;;;;;;-0.84;83.75;100406.03;5030148;28;20532;-66
2020/12/10 03:48:41;;;;;;;35.70;17.58;;;;;;;-0.88;83.91;100404.28;5031686;28;20045;-66
2020/12/10 03:51:07;;;;;;;35.35;19.50;;;;;;;-0.91;83.65;100409.31;5031142;28;20494;-66
2020/12/10 03:53:33;;;;;;;38.22;19.60;;;;;;;-0.90;83.80;100406.81;5026652;28;20050;-66
2020/12/10 03:55:58;;;;;;;41.03;19.40;;;;;;;-0.86;83.92;100402.63;5007368;28;541946;-66
2020/12/10 03:58:24;;;;;;;36.50;18.45;;;;;;;-0.89;83.54;100402.56;5030457;28;20049;-66
2020/12/10 04:00:50;;;;;;;34.78;17.90;;;;;;;-0.91;83.66;100394.00;5030727;28;20526;-66
2020/12/10 04:03:16;;;;;;;38.40;19.17;;;;;;;-0.86;83.67;100392.41;5018245;28;20080;-66
2020/12/10 04:05:43;;;;;;;34.97;19.85;;;;;;;-0.88;83.11;100396.63;5012832;28;20100;-66
2020/12/10 04:08:09;;;;;;;39.53;20.05;;;;;;;-0.91;83.21;100388.88;5029636;28;20053;-65
2020/12/10 04:10:35;;;;;;;39.38;20.42;;;;;;;-0.89;83.08;100382.13;5032045;28;20049;-66
2020/12/10 04:13:01;;;;;;;44.17;22.27;;;;;;;-0.91;83.78;100386.31;5031505;28;20483;-66
2020/12/10 04:15:27;;;;;;;37.53;20.70;;;;;;;-0.87;83.08;100390.69;5032018;28;20049;-66
2020/12/10 04:17:52;;;;;;;34.67;18.85;;;;;;;-0.89;83.26;100382.97;5028089;28;20491;-66
2020/12/10 04:20:18;;;;;;;42.92;20.70;;;;;;;-0.95;83.56;100376.03;5017566;28;20057;-67
2020/12/10 04:22:45;;;;;;;40.03;20.25;;;;;;;-0.97;83.56;100385.38;5022521;28;20060;-66
2020/12/10 04:25:11;;;;;;;39.47;21.25;;;;;;;-0.98;83.46;100383.66;5031270;28;20045;-67
2020/12/10 04:27:37;;;;;;;38.47;19.88;;;;;;;-1.11;83.33;100382.53;5029962;28;20151;-66
2020/12/10 04:30:04;;;;;;;41.72;21.27;;;;;;;-1.06;83.92;100386.84;5030242;28;20095;-66
2020/12/10 04:32:30;;;;;;;39.70;19.60;;;;;;;-1.08;83.50;100386.81;5022936;28;20057;-66
2020/12/10 04:34:56;;;;;;;39.15;18.73;;;;;;;-1.06;83.85;100389.41;5031191;28;20068;-66
2020/12/10 04:37:21;;;;;;;43.22;20.95;;;;;;;-1.17;83.65;100387.47;5029018;28;20045;-66
2020/12/10 04:39:48;;;;;;;40.33;20.50;;;;;;;-1.11;83.56;100387.63;5029988;28;20049;-66
2020/12/10 04:42:16;;;;;;;42.67;20.83;;;;;;;-1.05;83.35;100386.91;5030872;28;20057;-66
2020/12/10 04:44:42;;;;;;;39.45;20.52;;;;;;;-1.06;83.09;100384.28;5028633;28;20049;-65
2020/12/10 04:47:10;;;;;;;40.22;20.42;;;;;;;-1.05;83.20;100389.44;5029990;28;20057;-66
2020/12/10 04:49:36;;;;;;;38.95;20.92;;;;;;;-1.11;83.22;100385.06;5029144;28;20068;-66
2020/12/10 04:52:03;;;;;;;43.70;21.30;;;;;;;-1.10;83.68;100388.47;5027052;28;20064;-66
2020/12/10 04:54:30;;;;;;;48.75;22.55;;;;;;;-1.07;83.16;100391.09;5026613;28;20068;-67
2020/12/10 04:56:56;;;;;;;45.08;21.65;;;;;;;-1.07;82.78;100396.22;5022393;28;20060;-66
2020/12/10 04:59:22;;;;;;;48.33;23.48;;;;;;;-1.12;83.43;100391.00;5022155;28;20060;-67
2020/12/10 05:01:48;;;;;;;46.00;22.00;;;;;;;-1.17;83.43;100397.69;5018935;28;20045;-65
2020/12/10 05:04:14;;;;;;;48.72;21.55;;;;;;;-1.17;83.09;100395.13;5024052;28;20061;-65
2020/12/10 05:06:49;;;;;;;41.35;20.95;;;;;;;-1.19;83.07;100399.31;5021265;28;20758;-67
2020/12/10 05:09:15;;;;;;;47.35;21.13;;;;;;;-1.21;83.42;100395.91;5020112;28;20103;-68
2020/12/10 05:11:41;;;;;;;47.00;22.50;;;;;;;-1.20;83.47;100395.06;5021689;28;20073;-66
2020/12/10 05:14:08;;;;;;;44.08;22.38;;;;;;;-1.17;83.27;100390.00;5019868;28;20123;-66
2020/12/10 05:16:34;;;;;;;43.13;22.70;;;;;;;-1.26;83.45;100390.69;5022868;28;20045;-66
2020/12/10 05:19:18;;;;;;;44.50;21.80;;;;;;;-1.17;83.33;100396.81;5023200;28;20111;-67
2020/12/10 05:22:01;;;;;;;49.03;21.17;;;;;;;-1.11;83.43;100407.16;5019683;28;20052;-66
2020/12/10 05:24:26;;;;;;;45.05;21.85;;;;;;;-1.15;83.12;100402.84;5021013;28;20136;-66
2020/12/10 05:27:15;;;;;;;46.28;23.08;;;;;;;-1.17;83.46;100404.47;5021637;28;20053;-66
2020/12/10 05:29:42;;;;;;;47.97;22.90;;;;;;;-1.16;83.31;100401.09;5021012;28;20045;-66
2020/12/10 05:32:09;;;;;;;47.58;22.92;;;;;;;-1.15;83.42;100390.91;5025830;28;20045;-71
2020/12/10 05:34:34;;;;;;;43.38;19.42;;;;;;;-1.20;83.47;100389.97;5025620;28;20049;-66
2020/12/10 05:37:00;;;;;;;45.33;22.15;;;;;;;-1.18;83.73;100400.19;5029279;28;20069;-66
2020/12/10 05:39:26;;;;;;;43.35;22.42;;;;;;;-1.17;83.73;100397.69;5025921;28;20099;-65
2020/12/10 05:41:54;;;;;;;44.22;21.90;;;;;;;-1.19;83.37;100398.47;5026967;28;20091;-66
2020/12/10 05:44:22;;;;;;;43.47;22.10;;;;;;;-1.25;83.77;100394.94;5025304;28;20064;-66
2020/12/10 05:46:51;;;;;;;45.80;21.80;;;;;;;-1.16;83.49;100394.28;5023654;28;20053;-66
2020/12/10 05:49:18;;;;;;;42.15;21.20;;;;;;;-1.12;83.06;100401.22;5024396;28;20501;-68
2020/12/10 05:51:46;;;;;;;40.25;20.92;;;;;;;-1.06;82.77;100395.38;5021478;28;20106;-66
2020/12/10 05:54:14;;;;;;;44.60;21.88;;;;;;;-1.03;82.75;100392.03;5020239;28;20061;-66
2020/12/10 05:56:54;;;;;;;44.03;21.58;;;;;;;-1.05;82.62;100389.44;5024033;28;20060;-67
2020/12/10 05:59:21;;;;;;;41.35;21.60;;;;;;;-1.05;82.66;100397.13;5020108;28;20140;-67
2020/12/10 06:01:47;;;;;;;44.63;21.55;;;;;;;-1.02;82.73;100391.22;5030671;28;20041;-67
2020/12/10 06:04:15;;;;;;;43.53;21.27;;;;;;;-0.99;82.70;100397.25;5033466;28;20101;-67
2020/12/10 06:06:41;;;;;;;48.75;22.83;;;;;;;-1.00;82.17;100392.97;5033886;28;20049;-67
2020/12/10 06:09:08;;;;;;;43.20;20.30;;;;;;;-0.97;82.16;100393.03;5032263;28;20119;-67
2020/12/10 06:11:34;;;;;;;47.63;22.15;;;;;;;-0.96;82.09;100407.53;5020314;28;20042;-67
2020/12/10 06:14:03;;;;;;;42.80;22.70;;;;;;;-1.01;82.47;100401.44;5026720;28;20423;-67
2020/12/10 06:16:29;;;;;;;41.80;22.02;;;;;;;-1.08;82.39;100402.13;5029709;28;20404;-67
2020/12/10 06:19:01;;;;;;;41.63;21.42;;;;;;;-1.08;82.62;100402.13;5030762;28;20065;-67
2020/12/10 06:21:40;;;;;;;42.08;21.42;;;;;;;-1.09;82.74;100405.50;5032426;28;20077;-67
2020/12/10 06:24:37;;;;;;;43.80;21.65;;;;;;;-1.12;82.33;100400.34;5017376;28;20049;-66
2020/12/10 06:27:23;;;;;;;45.10;22.10;;;;;;;-1.07;82.37;100397.88;5033416;28;20049;-67
2020/12/10 06:29:50;;;;;;;50.28;23.58;;;;;;;-1.12;82.25;100396.09;5016646;28;20049;-67
2020/12/10 06:32:17;;;;;;;42.25;21.98;;;;;;;-1.10;82.03;100385.91;5033068;28;20042;-66
2020/12/10 06:34:45;;;;;;;47.42;22.52;;;;;;;-1.11;82.26;100382.53;5032154;28;20049;-67
2020/12/10 06:37:26;;;;;;;43.75;22.42;;;;;;;-1.22;82.43;100380.53;5013754;28;20045;-67
2020/12/10 06:39:55;;;;;;;44.72;21.67;;;;;;;-1.30;83.14;100373.56;5026966;28;20056;-67
2020/12/10 06:42:21;;;;;;;45.15;22.67;;;;;;;-1.39;83.54;100382.69;5031844;28;20061;-66
2020/12/10 06:44:47;;;;;;;45.65;21.50;;;;;;;-1.34;84.12;100378.56;5029868;28;20050;-68
2020/12/10 06:47:13;;;;;;;45.50;22.55;;;;;;;-1.31;83.88;100384.59;5013350;28;20101;-67
2020/12/10 06:49:39;;;;;;;49.35;21.52;;;;;;;-1.28;83.40;100388.91;5013400;28;20061;-68
2020/12/10 06:52:13;;;;;;;45.38;21.92;;;;;;;-1.31;83.87;100388.84;5019401;28;20041;-68
2020/12/10 06:55:10;;;;;;;48.03;22.70;;;;;;;-1.33;83.71;100393.91;5023200;28;20056;-67
2020/12/10 06:58:05;;;;;;;51.13;21.60;;;;;;;-1.32;83.96;100393.06;5032526;28;20093;-66
2020/12/10 07:00:50;;;;;;;48.35;22.50;;;;;;;-1.30;83.33;100400.78;5029211;28;20080;-67
2020/12/10 07:03:20;;;;;;;;;;;;;;;-1.30;83.41;100405.88;5033424;28;20097;-67
2020/12/10 07:05:46;;;;;;;48.47;21.92;;;;;;;-1.29;83.60;100413.56;5032816;28;19920;-68
2020/12/10 07:08:14;;;;;;;60.22;21.25;;;;;;;-0.84;90.46;100408.59;5030917;28;20060;-67
2020/12/10 07:10:43;;;;;;;72.80;26.02;;;;;;;0.22;93.82;100411.53;5031984;28;20053;-66
2020/12/10 07:13:10;;;;;;;81.38;31.15;;;;;;;1.06;94.77;100409.50;5029818;28;20057;-66
2020/12/10 07:15:37;;;;;;;76.47;30.80;;;;;;;1.53;95.05;100413.53;5022865;28;20050;-67
2020/12/10 07:18:05;;;;;;;47.10;24.45;;;;;;;1.39;94.71;100415.94;5029152;28;20060;-68
2020/12/10 07:20:33;;;;;;;38.70;20.20;;;;;;;0.80;92.71;100415.94;5031132;28;20041;-66
2020/12/10 07:22:59;;;;;;;41.05;20.95;;;;;;;0.44;90.96;100417.91;5032567;28;20085;-66
2020/12/10 07:25:25;;;;;;;44.63;21.95;;;;;;;0.13;89.56;100417.38;5030872;28;20510;-67
2020/12/10 07:27:52;;;;;;;35.88;20.80;;;;;;;-0.13;88.63;100422.84;5026321;28;20041;-66
2020/12/10 07:30:19;;;;;;;39.22;21.02;;;;;;;-0.39;87.13;100427.44;5032002;28;20399;-66
2020/12/10 07:32:46;;;;;;;41.47;21.23;;;;;;;-0.58;86.01;100434.72;5031098;28;20045;-65
2020/12/10 07:35:13;;;;;;;39.08;20.42;;;;;;;-0.70;84.18;100435.31;5016225;28;20046;-68
2020/12/10 07:37:40;;;;;;;38.85;19.00;;;;;;;-0.74;82.93;100436.06;5023265;28;20046;-66
2020/12/10 07:40:12;;;;;;;38.65;20.38;;;;;;;-0.78;82.84;100436.84;5027487;28;20507;-68
2020/12/10 07:42:38;;;;;;;41.53;19.65;;;;;;;-0.70;85.09;100429.38;5030592;28;20061;-66
2020/12/10 07:45:12;;;;;;;36.85;19.23;;;;;;;-0.69;83.12;100442.16;5026656;28;20112;-66
2020/12/10 07:47:38;;;;;;;41.63;20.17;;;;;;;-0.72;82.28;100436.97;5026874;28;20052;-64
2020/12/10 07:50:20;;;;;;;38.75;19.83;;;;;;;-0.75;82.04;100436.03;5032048;28;20049;-67
2020/12/10 07:52:48;;;;;;;45.47;21.75;;;;;;;-0.76;81.45;100439.44;5027612;28;20047;-66
2020/12/10 07:55:17;;;;;;;38.30;19.33;;;;;;;-0.77;81.61;100430.03;5027950;28;20100;-65
2020/12/10 07:57:52;;;;;;;40.15;20.08;;;;;;;-0.74;81.27;100437.78;5031929;28;20469;-68
2020/12/10 08:00:23;;;;;;;41.53;19.70;;;;;;;-0.77;81.23;100430.91;5032300;28;20422;-65
2020/12/10 08:03:22;;;;;;;38.00;19.25;;;;;;;-0.84;nan;100434.13;5033579;28;20049;-65
2020/12/10 08:05:59;;;;;;;37.25;19.98;;;;;;;-0.97;81.88;100428.78;5032848;28;20080;-66
2020/12/10 08:08:37;;;;;;;41.00;20.73;;;;;;;-1.01;82.10;100434.63;5031605;28;20060;-64
2020/12/10 08:11:11;;;;;;;45.38;21.80;;;;;;;-1.02;82.47;100437.16;5032865;28;20103;-65
2020/12/10 08:13:37;;;;;;;41.95;21.27;;;;;;;-0.89;82.56;100431.47;5034244;28;20083;-64
2020/12/10 08:16:08;;;;;;;39.28;21.05;;;;;;;-0.85;81.99;100423.06;5032529;28;20050;-65
2020/12/10 08:18:34;;;;;;;42.92;20.52;;;;;;;-0.89;82.33;100425.53;5020908;28;20045;-63
2020/12/10 08:21:04;;;;;;;41.17;20.90;;;;;;;-0.94;82.42;100431.38;5030711;28;20048;-64
2020/12/10 08:23:42;;;;;;;44.30;20.52;;;;;;;-0.91;82.01;100432.28;5023303;28;20495;-64
2020/12/10 08:26:10;;;;;;;42.42;21.00;;;;;;;-0.85;82.04;100430.72;5013640;28;20081;-68
2020/12/10 08:28:36;;;;;;;41.72;21.45;;;;;;;-0.78;81.69;100431.75;5031967;28;20045;-65
2020/12/10 08:31:02;;;;;;;41.63;19.48;;;;;;;-0.74;81.58;100425.84;5019294;28;20458;-64
2020/12/10 08:33:34;;;;;;;39.50;21.33;;;;;;;-0.70;81.41;100426.81;5011946;28;20068;-67
2020/12/10 08:36:00;;;;;;;45.05;21.05;;;;;;;-0.71;81.70;100420.81;5013369;28;20057;-65
2020/12/10 08:38:26;;;;;;;41.92;20.88;;;;;;;-0.67;81.42;100420.06;5031332;28;20064;-64
2020/12/10 08:40:55;;;;;;;41.70;21.70;;;;;;;-0.63;81.47;100415.88;5031554;28;20088;-66
2020/12/10 08:43:21;;;;;;;38.60;19.73;;;;;;;-0.64;81.27;100422.66;5031830;28;20107;-64
2020/12/10 08:45:47;;;;;;;43.97;20.63;;;;;;;-0.63;80.88;100415.88;5039206;28;20052;-64
2020/12/10 08:48:15;;;;;;;45.28;22.05;;;;;;;-0.65;81.20;100420.94;5033814;28;20669;-65
2020/12/10 08:50:52;;;;;;;41.65;19.67;;;;;;;-0.70;81.65;100417.44;5029272;28;20453;-65
2020/12/10 08:53:18;;;;;;;42.88;21.40;;;;;;;-0.71;81.65;100412.31;5012038;28;20053;-67
2020/12/10 08:55:47;;;;;;;42.00;20.38;;;;;;;-0.73;81.57;100419.91;5058797;22;20647;-71
2020/12/10 08:58:19;;;;;;;46.10;22.58;;;;;;;-0.81;81.89;100411.22;5044621;28;20144;-67
2020/12/10 09:00:45;;;;;;;45.28;22.05;;;;;;;-0.81;82.29;100417.22;5048278;28;20051;-68
2020/12/10 09:03:11;;;;;;;47.42;24.30;;;;;;;-0.80;82.00;100418.06;5050230;28;20059;-68
2020/12/10 09:05:37;;;;;;;43.80;21.55;;;;;;;-0.78;82.44;100421.53;5049592;28;20052;-68
2020/12/10 09:08:04;;;;;;;47.35;22.55;;;;;;;-0.80;82.46;100429.13;5045113;28;20049;-69
2020/12/10 09:10:31;;;;;;;50.38;23.75;;;;;;;-0.78;82.54;100436.84;5035069;28;20128;-67
2020/12/10 09:12:57;;;;;;;47.90;23.58;;;;;;;-0.73;82.80;100425.03;5049982;28;20067;-68
2020/12/10 09:15:24;;;;;;;49.50;24.80;;;;;;;-0.62;82.33;100432.94;5035396;28;20049;-69
2020/12/10 09:17:50;;;;;;;48.72;22.80;;;;;;;-0.55;82.12;100436.50;5031485;28;20049;-66
2020/12/10 09:20:16;;;;;;;44.92;23.17;;;;;;;-0.53;82.17;100422.91;5030163;28;20049;-69
2020/12/10 09:22:43;;;;;;;57.47;22.67;;;;;;;-0.46;82.38;100434.13;5030528;28;20049;-68
2020/12/10 09:25:10;;;;;;;45.10;21.70;;;;;;;-0.39;82.31;100430.88;5020052;28;20061;-68
2020/12/10 09:27:36;;;;;;;41.35;21.17;;;;;;;-0.34;82.13;100429.25;5032047;28;20053;-69
2020/12/10 09:30:05;;;;;;;44.75;21.35;;;;;;;-0.27;81.92;100429.38;5038320;28;20611;-70
2020/12/10 09:32:34;;;;;;;44.22;21.77;;;;;;;-0.22;81.37;100432.88;5010201;28;20049;-70
2020/12/10 09:35:00;;;;;;;43.63;22.33;;;;;;;-0.23;81.54;100436.28;5010659;28;20050;-68
2020/12/10 09:37:26;;;;;;;41.83;22.65;;;;;;;-0.28;81.90;100436.19;5011124;28;20073;-69
2020/12/10 09:39:52;;;;;;;42.58;22.50;;;;;;;-0.25;81.32;100428.59;5026749;28;20507;-67
2020/12/10 09:42:19;;;;;;;38.42;21.02;;;;;;;-0.21;81.80;100435.50;5030833;28;20136;-68
2020/12/10 09:44:45;;;;;;;47.83;22.88;;;;;;;-0.16;82.02;100440.69;5033942;28;20065;-69
2020/12/10 09:47:11;;;;;;;41.38;21.65;;;;;;;-0.09;81.74;100429.75;5036275;28;20080;-69
2020/12/10 09:49:37;;;;;;;48.85;23.90;;;;;;;-0.05;81.95;100433.22;5036075;28;20046;-68
2020/12/10 09:52:04;;;;;;;37.55;20.42;;;;;;;-0.01;81.61;100437.56;5030272;28;20049;-69
2020/12/10 09:54:39;;;;;;;43.15;21.92;;;;;;;0.07;82.10;100430.91;5018677;28;20076;-67
2020/12/10 09:57:10;;;;;;;41.88;22.25;;;;;;;0.18;81.41;100432.81;5022804;28;20053;-70
2020/12/10 09:59:38;;;;;;;40.67;21.20;;;;;;;0.23;81.34;100437.16;5031599;28;20049;-66
2020/12/10 10:02:04;;;;;;;44.08;23.08;;;;;;;0.21;80.94;100433.72;5010280;28;20057;-69
2020/12/10 10:04:31;;;;;;;46.35;23.80;;;;;;;0.25;81.23;100425.25;5009995;28;20050;-67
2020/12/10 10:06:57;;;;;;;47.40;23.60;;;;;;;0.27;81.27;100428.69;5011955;28;20053;-69
2020/12/10 10:09:25;;;;;;;43.67;21.55;;;;;;;0.35;80.63;100417.75;5039229;28;20063;-69
2020/12/10 10:11:52;;;;;;;43.20;21.77;;;;;;;0.37;80.94;100410.94;5044755;28;20128;-68
2020/12/10 10:14:18;;;;;;;42.05;23.17;;;;;;;0.45;80.91;100407.69;5031492;28;20048;-68
2020/12/10 10:16:44;;;;;;;40.70;22.60;;;;;;;0.53;80.51;100407.84;5026868;28;20108;-69
2020/12/10 10:19:10;;;;;;;42.40;21.70;;;;;;;0.58;80.14;100408.75;5040609;28;20052;-68
2020/12/10 10:21:36;;;;;;;41.85;21.85;;;;;;;0.64;79.63;100408.00;5053628;28;20045;-68
2020/12/10 10:24:02;;;;;;;40.85;22.85;;;;;;;0.68;80.38;100403.78;5050117;28;20103;-69
2020/12/10 10:26:28;;;;;;;40.30;21.48;;;;;;;0.75;80.24;100409.03;5031823;28;20081;-70
2020/12/10 10:28:54;;;;;;;40.88;21.90;;;;;;;0.84;79.99;100405.75;5032155;28;20073;-68
2020/12/10 10:31:20;;;;;;;39.70;22.00;;;;;;;0.87;79.51;100405.78;5016566;28;20057;-67
2020/12/10 10:33:47;;;;;;;44.53;22.05;;;;;;;0.92;79.58;100403.28;5023907;28;20128;-69
2020/12/10 10:36:14;;;;;;;42.10;23.23;;;;;;;0.99;79.35;100409.38;5037014;28;20053;-67
2020/12/10 10:38:40;;;;;;;43.67;23.63;;;;;;;0.97;79.20;100405.91;5036649;28;20064;-70
2020/12/10 10:41:06;;;;;;;41.58;23.10;;;;;;;0.99;79.14;100399.13;5033880;28;20042;-69
2020/12/10 10:43:35;;;;;;;41.50;22.40;;;;;;;1.01;79.27;100402.56;5033373;28;20064;-69
2020/12/10 10:46:01;;;;;;;40.47;22.42;;;;;;;0.91;79.45;100397.31;5032034;28;20046;-70
2020/12/10 10:48:27;;;;;;;41.92;22.35;;;;;;;0.97;79.80;100395.69;5045512;28;20053;-70
2020/12/10 10:50:53;;;;;;;41.83;22.08;;;;;;;1.03;79.79;100396.63;5038794;28;20502;-69
2020/12/10 10:53:19;;;;;;;48.30;25.27;;;;;;;0.96;79.63;100391.38;5041809;28;20057;-69
2020/12/10 10:55:48;;;;;;;43.17;24.10;;;;;;;1.02;78.94;100394.06;5032492;28;20565;-69
2020/12/10 10:58:14;;;;;;;45.90;23.33;;;;;;;0.99;79.23;100384.63;5025934;28;20132;-70
2020/12/10 11:00:40;;;;;;;45.50;22.70;;;;;;;0.96;79.25;100384.59;5012689;28;20112;-69
2020/12/10 11:03:06;;;;;;;41.47;22.85;;;;;;;0.91;79.85;100378.53;5038114;28;20104;-69
2020/12/10 11:05:31;;;;;;;46.42;22.08;;;;;;;0.95;79.92;100374.34;5034096;28;20499;-69
2020/12/10 11:07:58;;;;;;;44.60;23.23;;;;;;;0.99;80.00;100382.09;5033503;28;20138;-68
2020/12/10 11:10:24;;;;;;;42.03;22.65;;;;;;;1.01;79.40;100376.97;5026118;28;20072;-68
2020/12/10 11:12:50;;;;;;;40.85;22.25;;;;;;;1.02;79.43;100371.00;5032561;28;20064;-69
2020/12/10 11:15:17;;;;;;;43.63;24.05;;;;;;;1.00;79.32;100375.25;5031773;28;20045;-69